M/y Ava — MMPY8 — position and weather

sailwx.info

Track history (hours):
 
Tides and Currents Weather Stations Pressure Air Temp Water Temp Dewpoint Dewpoint Depression Visibility Wind Speed Wind Dir Waves Ship Positions

M/y Ava

Last reported at 2016-Aug-28 11:05 UTC. Time now 2016-Aug-28 14:03 UTC.
Position N 43°42' E 007°22'.

Length 40 m; draft 2.8 m.

Type: Pleasure craft. MMSI: 232358000.

Date/timePositionNaut miles runAvg speedWind from/ knotsBaromVisibWave heightAir tempDewpointWater temp
2016-Aug-28 11:05N 43°42' E 007°22'6 7.7
2016-Aug-28 10:19N 43°38' E 007°16'7 8.9
2016-Aug-28 09:33N 43°35' E 007°08'0 0.0
2016-Aug-28 08:33N 43°35' E 007°08'0 0.0
2016-Aug-28 07:33N 43°35' E 007°08'0 0.0
2016-Aug-28 06:33N 43°35' E 007°08'0 0.0
2016-Aug-28 05:33N 43°35' E 007°08'0 0.0
2016-Aug-28 04:33N 43°35' E 007°08'0 0.0
2016-Aug-28 03:33N 43°35' E 007°08'0 0.0
2016-Aug-28 02:33N 43°35' E 007°08'0 0.0
2016-Aug-28 01:33N 43°35' E 007°08'0 0.0
2016-Aug-28 00:33N 43°35' E 007°08'0 0.0
2016-Aug-27 23:33N 43°35' E 007°08'0 0.0
2016-Aug-27 22:33N 43°35' E 007°08'0 0.0
2016-Aug-27 21:33N 43°35' E 007°08'0 0.0
2016-Aug-27 20:33N 43°35' E 007°08'3 2.8
2016-Aug-27 19:33N 43°32' E 007°08'5 0.5
2016-Aug-27 09:05N 43°28' E 007°02'611.3
2016-Aug-27 08:33N 43°32' E 007°08'3 2.9
2016-Aug-27 07:33N 43°35' E 007°07'0 0.0
2016-Aug-27 06:32N 43°35' E 007°07'0 0.0
2016-Aug-27 04:33N 43°35' E 007°07'0 0.0
2016-Aug-27 03:33N 43°35' E 007°07'0 0.0
2016-Aug-27 02:33N 43°35' E 007°07'0 0.0
2016-Aug-27 01:33N 43°35' E 007°07'0 0.0
2016-Aug-27 00:33N 43°35' E 007°07'0 0.0
2016-Aug-26 23:33N 43°35' E 007°07'0 0.0
2016-Aug-26 22:33N 43°35' E 007°07'0 0.0
2016-Aug-26 21:33N 43°35' E 007°07'0 0.0
2016-Aug-26 20:33N 43°35' E 007°07'0 0.0
2016-Aug-26 19:33N 43°35' E 007°07'0 0.0
2016-Aug-26 18:33N 43°35' E 007°07'0 0.0
2016-Aug-26 17:33N 43°35' E 007°07'0 0.0
2016-Aug-26 16:32N 43°35' E 007°07'0 0.0
2016-Aug-26 15:33N 43°35' E 007°07'0 0.0
2016-Aug-26 14:33N 43°35' E 007°07'0 0.0
2016-Aug-26 13:33N 43°35' E 007°07'0 0.5
2016-Aug-26 12:33N 43°36' E 007°08'11 8.4
2016-Aug-26 11:16N 43°41' E 007°21'  
Track history (hours):
 
Tides and Currents Weather Stations Pressure Air Temp Water Temp Dewpoint Dewpoint Depression Visibility Wind Speed Wind Dir Waves Ship Positions

M/y Ava

Last reported at 2016-Aug-28 11:05 UTC. Time now 2016-Aug-28 14:03 UTC.
Position N 43°42' E 007°22'.

Length 40 m; draft 2.8 m.

Type: Pleasure craft. MMSI: 232358000.

Date/timePositionNaut miles runAvg speedWind from/ knotsBaromVisibWave heightAir tempDewpointWater temp
2016-Aug-28 11:05N 43°42' E 007°22'6 7.7
2016-Aug-28 10:19N 43°38' E 007°16'7 8.9
2016-Aug-28 09:33N 43°35' E 007°08'0 0.0
2016-Aug-28 08:33N 43°35' E 007°08'0 0.0
2016-Aug-28 07:33N 43°35' E 007°08'0 0.0
2016-Aug-28 06:33N 43°35' E 007°08'0 0.0
2016-Aug-28 05:33N 43°35' E 007°08'0 0.0
2016-Aug-28 04:33N 43°35' E 007°08'0 0.0
2016-Aug-28 03:33N 43°35' E 007°08'0 0.0
2016-Aug-28 02:33N 43°35' E 007°08'0 0.0
2016-Aug-28 01:33N 43°35' E 007°08'0 0.0
2016-Aug-28 00:33N 43°35' E 007°08'0 0.0
2016-Aug-27 23:33N 43°35' E 007°08'0 0.0
2016-Aug-27 22:33N 43°35' E 007°08'0 0.0
2016-Aug-27 21:33N 43°35' E 007°08'0 0.0
2016-Aug-27 20:33N 43°35' E 007°08'3 2.8
2016-Aug-27 19:33N 43°32' E 007°08'5 0.5
2016-Aug-27 09:05N 43°28' E 007°02'611.3
2016-Aug-27 08:33N 43°32' E 007°08'3 2.9
2016-Aug-27 07:33N 43°35' E 007°07'0 0.0
2016-Aug-27 06:32N 43°35' E 007°07'0 0.0
2016-Aug-27 04:33N 43°35' E 007°07'0 0.0
2016-Aug-27 03:33N 43°35' E 007°07'0 0.0
2016-Aug-27 02:33N 43°35' E 007°07'0 0.0
2016-Aug-27 01:33N 43°35' E 007°07'0 0.0
2016-Aug-27 00:33N 43°35' E 007°07'0 0.0
2016-Aug-26 23:33N 43°35' E 007°07'0 0.0
2016-Aug-26 22:33N 43°35' E 007°07'0 0.0
2016-Aug-26 21:33N 43°35' E 007°07'0 0.0
2016-Aug-26 20:33N 43°35' E 007°07'0 0.0
2016-Aug-26 19:33N 43°35' E 007°07'0 0.0
2016-Aug-26 18:33N 43°35' E 007°07'0 0.0
2016-Aug-26 17:33N 43°35' E 007°07'0 0.0
2016-Aug-26 16:32N 43°35' E 007°07'0 0.0
2016-Aug-26 15:33N 43°35' E 007°07'0 0.0
2016-Aug-26 14:33N 43°35' E 007°07'0 0.0
2016-Aug-26 13:33N 43°35' E 007°07'0 0.5
2016-Aug-26 12:33N 43°36' E 007°08'11 8.4
2016-Aug-26 11:16N 43°41' E 007°21'  

Dump ship's entire track history